<?xml version="1.0" encoding="UTF-8" standalone="no" ?>
<gpx xmlns="http://www.topografix.com/GPX/1/1" xmlns:xsi="http://www.w3.org/2001/XMLSchema-instance" xsi:schemaLocation="http://www.topografix.com/GPX/1/1 http://www.topografix.com/GPX/1/1/gpx.xsd" version="1.1" creator="VisuGPX - https://www.visugpx.com">
  <metadata>
    <name>Traversée des Pyrénées 1/8</name>
    <desc><![CDATA[Partie 1/8 de la traversée des Pyrénées à ski.]]></desc>
  </metadata>
  <trk>
    <name><![CDATA[TPS1 04 FEB 2016]]></name>
    <trkseg>
      <trkpt lat="42.52335" lon="2.38827">
        <ele>886.95</ele>
        <time>2017-02-04T11:00:43Z</time>
      </trkpt>
      <trkpt lat="42.52305" lon="2.38803">
        <ele>891.28</ele>
        <time>2017-02-04T11:01:52Z</time>
      </trkpt>
      <trkpt lat="42.5229" lon="2.38772">
        <ele>894.64</ele>
        <time>2017-02-04T11:02:33Z</time>
      </trkpt>
      <trkpt lat="42.52273" lon="2.3874">
        <ele>898.01</ele>
        <time>2017-02-04T11:03:14Z</time>
      </trkpt>
      <trkpt lat="42.52247" lon="2.38715">
        <ele>904.26</ele>
        <time>2017-02-04T11:04:13Z</time>
      </trkpt>
      <trkpt lat="42.52247" lon="2.38725">
        <ele>902.82</ele>
        <time>2017-02-04T11:04:25Z</time>
      </trkpt>
      <trkpt lat="42.52251" lon="2.38754">
        <ele>906.66</ele>
        <time>2017-02-04T11:04:50Z</time>
      </trkpt>
      <trkpt lat="42.52226" lon="2.38758">
        <ele>910.99</ele>
        <time>2017-02-04T11:05:31Z</time>
      </trkpt>
      <trkpt lat="42.52205" lon="2.38725">
        <ele>914.83</ele>
        <time>2017-02-04T11:06:13Z</time>
      </trkpt>
      <trkpt lat="42.52189" lon="2.387">
        <ele>918.2</ele>
        <time>2017-02-04T11:06:55Z</time>
      </trkpt>
      <trkpt lat="42.52158" lon="2.38676">
        <ele>921.56</ele>
        <time>2017-02-04T11:07:38Z</time>
      </trkpt>
      <trkpt lat="42.52125" lon="2.38644">
        <ele>924.45</ele>
        <time>2017-02-04T11:08:47Z</time>
      </trkpt>
      <trkpt lat="42.5209" lon="2.38569">
        <ele>927.81</ele>
        <time>2017-02-04T11:09:56Z</time>
      </trkpt>
      <trkpt lat="42.52089" lon="2.38564">
        <ele>927.81</ele>
        <time>2017-02-04T11:10:00Z</time>
      </trkpt>
      <trkpt lat="42.52076" lon="2.38548">
        <ele>931.17</ele>
        <time>2017-02-04T11:10:23Z</time>
      </trkpt>
      <trkpt lat="42.52073" lon="2.38517">
        <ele>936.94</ele>
        <time>2017-02-04T11:11:03Z</time>
      </trkpt>
      <trkpt lat="42.5206" lon="2.38498">
        <ele>941.75</ele>
        <time>2017-02-04T11:11:39Z</time>
      </trkpt>
      <trkpt lat="42.5204" lon="2.38469">
        <ele>945.11</ele>
        <time>2017-02-04T11:12:19Z</time>
      </trkpt>
      <trkpt lat="42.52016" lon="2.3845">
        <ele>949.92</ele>
        <time>2017-02-04T11:13:03Z</time>
      </trkpt>
      <trkpt lat="42.51999" lon="2.38421">
        <ele>954.25</ele>
        <time>2017-02-04T11:13:41Z</time>
      </trkpt>
      <trkpt lat="42.51986" lon="2.38405">
        <ele>958.09</ele>
        <time>2017-02-04T11:14:25Z</time>
      </trkpt>
      <trkpt lat="42.51959" lon="2.38398">
        <ele>962.9</ele>
        <time>2017-02-04T11:15:10Z</time>
      </trkpt>
      <trkpt lat="42.51937" lon="2.38375">
        <ele>967.22</ele>
        <time>2017-02-04T11:15:50Z</time>
      </trkpt>
      <trkpt lat="42.51923" lon="2.38352">
        <ele>971.55</ele>
        <time>2017-02-04T11:16:31Z</time>
      </trkpt>
      <trkpt lat="42.51914" lon="2.38336">
        <ele>976.84</ele>
        <time>2017-02-04T11:17:18Z</time>
      </trkpt>
      <trkpt lat="42.51891" lon="2.38325">
        <ele>982.6</ele>
        <time>2017-02-04T11:17:59Z</time>
      </trkpt>
      <trkpt lat="42.51869" lon="2.38314">
        <ele>988.37</ele>
        <time>2017-02-04T11:18:38Z</time>
      </trkpt>
      <trkpt lat="42.51844" lon="2.38294">
        <ele>993.66</ele>
        <time>2017-02-04T11:21:04Z</time>
      </trkpt>
      <trkpt lat="42.51836" lon="2.38284">
        <ele>997.02</ele>
        <time>2017-02-04T11:21:23Z</time>
      </trkpt>
      <trkpt lat="42.51814" lon="2.38267">
        <ele>1003.27</ele>
        <time>2017-02-04T11:21:58Z</time>
      </trkpt>
      <trkpt lat="42.518" lon="2.38248">
        <ele>1007.6</ele>
        <time>2017-02-04T11:22:38Z</time>
      </trkpt>
      <trkpt lat="42.51786" lon="2.38225">
        <ele>1012.41</ele>
        <time>2017-02-04T11:23:17Z</time>
      </trkpt>
      <trkpt lat="42.51769" lon="2.38209">
        <ele>1017.21</ele>
        <time>2017-02-04T11:24:01Z</time>
      </trkpt>
      <trkpt lat="42.51759" lon="2.38199">
        <ele>1020.58</ele>
        <time>2017-02-04T11:24:18Z</time>
      </trkpt>
      <trkpt lat="42.51738" lon="2.38188">
        <ele>1025.86</ele>
        <time>2017-02-04T11:24:58Z</time>
      </trkpt>
      <trkpt lat="42.51715" lon="2.38181">
        <ele>1030.19</ele>
        <time>2017-02-04T11:25:38Z</time>
      </trkpt>
      <trkpt lat="42.51699" lon="2.38187">
        <ele>1035</ele>
        <time>2017-02-04T11:26:20Z</time>
      </trkpt>
      <trkpt lat="42.51687" lon="2.38189">
        <ele>1041.25</ele>
        <time>2017-02-04T11:26:58Z</time>
      </trkpt>
      <trkpt lat="42.51682" lon="2.38165">
        <ele>1046.53</ele>
        <time>2017-02-04T11:27:38Z</time>
      </trkpt>
      <trkpt lat="42.51687" lon="2.38151">
        <ele>1049.9</ele>
        <time>2017-02-04T11:27:58Z</time>
      </trkpt>
      <trkpt lat="42.51701" lon="2.38128">
        <ele>1054.22</ele>
        <time>2017-02-04T11:28:33Z</time>
      </trkpt>
      <trkpt lat="42.51705" lon="2.38115">
        <ele>1058.55</ele>
        <time>2017-02-04T11:29:07Z</time>
      </trkpt>
      <trkpt lat="42.51688" lon="2.38118">
        <ele>1062.39</ele>
        <time>2017-02-04T11:29:37Z</time>
      </trkpt>
      <trkpt lat="42.51666" lon="2.3812">
        <ele>1067.68</ele>
        <time>2017-02-04T11:30:15Z</time>
      </trkpt>
      <trkpt lat="42.51646" lon="2.38106">
        <ele>1072.49</ele>
        <time>2017-02-04T11:30:54Z</time>
      </trkpt>
      <trkpt lat="42.51625" lon="2.3815">
        <ele>1076.81</ele>
        <time>2017-02-04T11:31:50Z</time>
      </trkpt>
      <trkpt lat="42.51599" lon="2.38162">
        <ele>1080.66</ele>
        <time>2017-02-04T11:32:29Z</time>
      </trkpt>
      <trkpt lat="42.51587" lon="2.38163">
        <ele>1084.99</ele>
        <time>2017-02-04T11:33:05Z</time>
      </trkpt>
      <trkpt lat="42.51567" lon="2.38162">
        <ele>1089.31</ele>
        <time>2017-02-04T11:33:39Z</time>
      </trkpt>
      <trkpt lat="42.51552" lon="2.38158">
        <ele>1093.64</ele>
        <time>2017-02-04T11:34:20Z</time>
      </trkpt>
      <trkpt lat="42.51533" lon="2.38155">
        <ele>1099.4</ele>
        <time>2017-02-04T11:34:57Z</time>
      </trkpt>
      <trkpt lat="42.51534" lon="2.38137">
        <ele>1104.69</ele>
        <time>2017-02-04T11:35:36Z</time>
      </trkpt>
      <trkpt lat="42.51546" lon="2.38121">
        <ele>1109.02</ele>
        <time>2017-02-04T11:36:13Z</time>
      </trkpt>
      <trkpt lat="42.51537" lon="2.38121">
        <ele>1111.42</ele>
        <time>2017-02-04T11:36:31Z</time>
      </trkpt>
      <trkpt lat="42.5151" lon="2.38125">
        <ele>1114.79</ele>
        <time>2017-02-04T11:37:03Z</time>
      </trkpt>
      <trkpt lat="42.51489" lon="2.38109">
        <ele>1124.88</ele>
        <time>2017-02-04T11:50:03Z</time>
      </trkpt>
      <trkpt lat="42.51482" lon="2.38105">
        <ele>1124.88</ele>
        <time>2017-02-04T11:50:38Z</time>
      </trkpt>
      <trkpt lat="42.51444" lon="2.38106">
        <ele>1126.8</ele>
        <time>2017-02-04T11:51:22Z</time>
      </trkpt>
      <trkpt lat="42.51411" lon="2.38082">
        <ele>1130.17</ele>
        <time>2017-02-04T11:52:09Z</time>
      </trkpt>
      <trkpt lat="42.51369" lon="2.38058">
        <ele>1134.01</ele>
        <time>2017-02-04T11:53:27Z</time>
      </trkpt>
      <trkpt lat="42.51341" lon="2.38025">
        <ele>1137.38</ele>
        <time>2017-02-04T11:54:15Z</time>
      </trkpt>
      <trkpt lat="42.51321" lon="2.38014">
        <ele>1140.74</ele>
        <time>2017-02-04T11:54:43Z</time>
      </trkpt>
      <trkpt lat="42.51304" lon="2.3801">
        <ele>1144.59</ele>
        <time>2017-02-04T11:55:08Z</time>
      </trkpt>
      <trkpt lat="42.51293" lon="2.38009">
        <ele>1143.63</ele>
        <time>2017-02-04T11:55:25Z</time>
      </trkpt>
      <trkpt lat="42.51268" lon="2.38027">
        <ele>1147.95</ele>
        <time>2017-02-04T11:56:19Z</time>
      </trkpt>
      <trkpt lat="42.51248" lon="2.38045">
        <ele>1151.8</ele>
        <time>2017-02-04T11:57:00Z</time>
      </trkpt>
      <trkpt lat="42.51235" lon="2.3806">
        <ele>1155.16</ele>
        <time>2017-02-04T11:57:41Z</time>
      </trkpt>
      <trkpt lat="42.51271" lon="2.38044">
        <ele>1157.56</ele>
        <time>2017-02-04T11:58:15Z</time>
      </trkpt>
      <trkpt lat="42.51304" lon="2.38048">
        <ele>1160.93</ele>
        <time>2017-02-04T11:58:57Z</time>
      </trkpt>
      <trkpt lat="42.51322" lon="2.38068">
        <ele>1164.29</ele>
        <time>2017-02-04T11:59:26Z</time>
      </trkpt>
      <trkpt lat="42.5134" lon="2.38095">
        <ele>1167.66</ele>
        <time>2017-02-04T11:59:57Z</time>
      </trkpt>
      <trkpt lat="42.51361" lon="2.38128">
        <ele>1171.5</ele>
        <time>2017-02-04T12:00:33Z</time>
      </trkpt>
      <trkpt lat="42.51393" lon="2.38163">
        <ele>1176.31</ele>
        <time>2017-02-04T12:01:22Z</time>
      </trkpt>
      <trkpt lat="42.51395" lon="2.38166">
        <ele>1176.31</ele>
        <time>2017-02-04T12:01:26Z</time>
      </trkpt>
      <trkpt lat="42.51403" lon="2.38204">
        <ele>1180.16</ele>
        <time>2017-02-04T12:02:01Z</time>
      </trkpt>
      <trkpt lat="42.51394" lon="2.38239">
        <ele>1184.48</ele>
        <time>2017-02-04T12:02:44Z</time>
      </trkpt>
      <trkpt lat="42.51391" lon="2.38277">
        <ele>1188.81</ele>
        <time>2017-02-04T12:03:21Z</time>
      </trkpt>
      <trkpt lat="42.51392" lon="2.38332">
        <ele>1193.61</ele>
        <time>2017-02-04T12:04:16Z</time>
      </trkpt>
      <trkpt lat="42.51391" lon="2.3837">
        <ele>1196.98</ele>
        <time>2017-02-04T12:04:49Z</time>
      </trkpt>
      <trkpt lat="42.51399" lon="2.38422">
        <ele>1200.82</ele>
        <time>2017-02-04T12:05:36Z</time>
      </trkpt>
      <trkpt lat="42.51426" lon="2.38458">
        <ele>1205.15</ele>
        <time>2017-02-04T12:06:28Z</time>
      </trkpt>
      <trkpt lat="42.51438" lon="2.38483">
        <ele>1208.51</ele>
        <time>2017-02-04T12:07:03Z</time>
      </trkpt>
      <trkpt lat="42.51447" lon="2.38517">
        <ele>1213.32</ele>
        <time>2017-02-04T12:07:46Z</time>
      </trkpt>
      <trkpt lat="42.51452" lon="2.38551">
        <ele>1217.65</ele>
        <time>2017-02-04T12:08:27Z</time>
      </trkpt>
      <trkpt lat="42.51461" lon="2.38587">
        <ele>1221.49</ele>
        <time>2017-02-04T12:09:07Z</time>
      </trkpt>
      <trkpt lat="42.51461" lon="2.38588">
        <ele>1221.49</ele>
        <time>2017-02-04T12:09:08Z</time>
      </trkpt>
      <trkpt lat="42.51466" lon="2.38641">
        <ele>1225.82</ele>
        <time>2017-02-04T12:10:04Z</time>
      </trkpt>
      <trkpt lat="42.5145" lon="2.38665">
        <ele>1230.14</ele>
        <time>2017-02-04T12:10:44Z</time>
      </trkpt>
      <trkpt lat="42.51415" lon="2.38671">
        <ele>1235.43</ele>
        <time>2017-02-04T12:11:46Z</time>
      </trkpt>
      <trkpt lat="42.51386" lon="2.38688">
        <ele>1238.8</ele>
        <time>2017-02-04T12:12:30Z</time>
      </trkpt>
      <trkpt lat="42.51365" lon="2.38707">
        <ele>1242.64</ele>
        <time>2017-02-04T12:13:13Z</time>
      </trkpt>
      <trkpt lat="42.51346" lon="2.38731">
        <ele>1246.49</ele>
        <time>2017-02-04T12:13:55Z</time>
      </trkpt>
      <trkpt lat="42.51324" lon="2.38755">
        <ele>1250.81</ele>
        <time>2017-02-04T12:14:42Z</time>
      </trkpt>
      <trkpt lat="42.51303" lon="2.38774">
        <ele>1255.14</ele>
        <time>2017-02-04T12:15:24Z</time>
      </trkpt>
      <trkpt lat="42.51281" lon="2.38792">
        <ele>1258.98</ele>
        <time>2017-02-04T12:16:02Z</time>
      </trkpt>
      <trkpt lat="42.51255" lon="2.38807">
        <ele>1262.83</ele>
        <time>2017-02-04T12:16:40Z</time>
      </trkpt>
      <trkpt lat="42.51237" lon="2.38833">
        <ele>1266.67</ele>
        <time>2017-02-04T12:17:19Z</time>
      </trkpt>
      <trkpt lat="42.51227" lon="2.38868">
        <ele>1270.52</ele>
        <time>2017-02-04T12:17:58Z</time>
      </trkpt>
      <trkpt lat="42.51212" lon="2.38894">
        <ele>1273.88</ele>
        <time>2017-02-04T12:18:34Z</time>
      </trkpt>
      <trkpt lat="42.51196" lon="2.38924">
        <ele>1277.73</ele>
        <time>2017-02-04T12:19:15Z</time>
      </trkpt>
      <trkpt lat="42.51169" lon="2.3897">
        <ele>1283.02</ele>
        <time>2017-02-04T12:20:13Z</time>
      </trkpt>
      <trkpt lat="42.51179" lon="2.38921">
        <ele>1287.82</ele>
        <time>2017-02-04T12:21:12Z</time>
      </trkpt>
      <trkpt lat="42.51201" lon="2.38859">
        <ele>1292.15</ele>
        <time>2017-02-04T12:22:30Z</time>
      </trkpt>
      <trkpt lat="42.51202" lon="2.38824">
        <ele>1295.51</ele>
        <time>2017-02-04T12:23:04Z</time>
      </trkpt>
      <trkpt lat="42.51199" lon="2.38789">
        <ele>1300.32</ele>
        <time>2017-02-04T12:23:44Z</time>
      </trkpt>
      <trkpt lat="42.51209" lon="2.38757">
        <ele>1304.17</ele>
        <time>2017-02-04T12:24:22Z</time>
      </trkpt>
      <trkpt lat="42.51224" lon="2.38734">
        <ele>1307.53</ele>
        <time>2017-02-04T12:24:59Z</time>
      </trkpt>
      <trkpt lat="42.51249" lon="2.38703">
        <ele>1311.86</ele>
        <time>2017-02-04T12:25:55Z</time>
      </trkpt>
      <trkpt lat="42.5128" lon="2.38665">
        <ele>1316.18</ele>
        <time>2017-02-04T12:26:55Z</time>
      </trkpt>
      <trkpt lat="42.51294" lon="2.38634">
        <ele>1320.03</ele>
        <time>2017-02-04T12:27:38Z</time>
      </trkpt>
      <trkpt lat="42.51301" lon="2.38592">
        <ele>1323.87</ele>
        <time>2017-02-04T12:28:20Z</time>
      </trkpt>
      <trkpt lat="42.51291" lon="2.38569">
        <ele>1325.31</ele>
        <time>2017-02-04T12:28:57Z</time>
      </trkpt>
      <trkpt lat="42.51258" lon="2.38543">
        <ele>1327.24</ele>
        <time>2017-02-04T12:29:42Z</time>
      </trkpt>
      <trkpt lat="42.51242" lon="2.38506">
        <ele>1330.6</ele>
        <time>2017-02-04T12:30:25Z</time>
      </trkpt>
      <trkpt lat="42.51235" lon="2.38485">
        <ele>1330.6</ele>
        <time>2017-02-04T12:30:45Z</time>
      </trkpt>
      <trkpt lat="42.51212" lon="2.38391">
        <ele>1333.97</ele>
        <time>2017-02-04T12:32:54Z</time>
      </trkpt>
      <trkpt lat="42.51211" lon="2.38389">
        <ele>1332.52</ele>
        <time>2017-02-04T12:39:07Z</time>
      </trkpt>
      <trkpt lat="42.51207" lon="2.38445">
        <ele>1337.33</ele>
        <time>2017-02-04T12:42:24Z</time>
      </trkpt>
      <trkpt lat="42.51212" lon="2.38487">
        <ele>1342.14</ele>
        <time>2017-02-04T12:43:16Z</time>
      </trkpt>
      <trkpt lat="42.51217" lon="2.38526">
        <ele>1346.46</ele>
        <time>2017-02-04T12:43:58Z</time>
      </trkpt>
      <trkpt lat="42.51228" lon="2.38557">
        <ele>1351.27</ele>
        <time>2017-02-04T12:44:39Z</time>
      </trkpt>
      <trkpt lat="42.5124" lon="2.38595">
        <ele>1356.56</ele>
        <time>2017-02-04T12:45:26Z</time>
      </trkpt>
      <trkpt lat="42.51231" lon="2.38624">
        <ele>1359.92</ele>
        <time>2017-02-04T12:46:05Z</time>
      </trkpt>
      <trkpt lat="42.51212" lon="2.3864">
        <ele>1364.73</ele>
        <time>2017-02-04T12:46:42Z</time>
      </trkpt>
      <trkpt lat="42.51187" lon="2.38646">
        <ele>1369.05</ele>
        <time>2017-02-04T12:47:24Z</time>
      </trkpt>
      <trkpt lat="42.5117" lon="2.38663">
        <ele>1373.86</ele>
        <time>2017-02-04T12:48:04Z</time>
      </trkpt>
      <trkpt lat="42.51146" lon="2.38671">
        <ele>1377.23</ele>
        <time>2017-02-04T12:48:42Z</time>
      </trkpt>
      <trkpt lat="42.51131" lon="2.38683">
        <ele>1380.11</ele>
        <time>2017-02-04T12:49:06Z</time>
      </trkpt>
      <trkpt lat="42.51108" lon="2.38703">
        <ele>1384.44</ele>
        <time>2017-02-04T12:49:53Z</time>
      </trkpt>
      <trkpt lat="42.51092" lon="2.38732">
        <ele>1388.28</ele>
        <time>2017-02-04T12:50:35Z</time>
      </trkpt>
      <trkpt lat="42.51083" lon="2.38764">
        <ele>1393.09</ele>
        <time>2017-02-04T12:51:14Z</time>
      </trkpt>
      <trkpt lat="42.51079" lon="2.38801">
        <ele>1397.89</ele>
        <time>2017-02-04T12:51:54Z</time>
      </trkpt>
      <trkpt lat="42.51061" lon="2.38836">
        <ele>1403.18</ele>
        <time>2017-02-04T12:52:38Z</time>
      </trkpt>
      <trkpt lat="42.51042" lon="2.38857">
        <ele>1407.51</ele>
        <time>2017-02-04T12:53:18Z</time>
      </trkpt>
      <trkpt lat="42.51019" lon="2.3888">
        <ele>1411.83</ele>
        <time>2017-02-04T12:54:05Z</time>
      </trkpt>
      <trkpt lat="42.51004" lon="2.38905">
        <ele>1416.16</ele>
        <time>2017-02-04T12:54:39Z</time>
      </trkpt>
      <trkpt lat="42.50986" lon="2.3893">
        <ele>1420.97</ele>
        <time>2017-02-04T12:55:22Z</time>
      </trkpt>
      <trkpt lat="42.50972" lon="2.38968">
        <ele>1425.29</ele>
        <time>2017-02-04T12:56:08Z</time>
      </trkpt>
      <trkpt lat="42.50961" lon="2.39004">
        <ele>1428.66</ele>
        <time>2017-02-04T12:56:44Z</time>
      </trkpt>
      <trkpt lat="42.50934" lon="2.39027">
        <ele>1432.98</ele>
        <time>2017-02-04T12:57:29Z</time>
      </trkpt>
      <trkpt lat="42.50913" lon="2.39035">
        <ele>1436.35</ele>
        <time>2017-02-04T12:58:09Z</time>
      </trkpt>
      <trkpt lat="42.5089" lon="2.39054">
        <ele>1439.71</ele>
        <time>2017-02-04T12:58:46Z</time>
      </trkpt>
      <trkpt lat="42.50871" lon="2.3907">
        <ele>1443.08</ele>
        <time>2017-02-04T12:59:24Z</time>
      </trkpt>
      <trkpt lat="42.50857" lon="2.39099">
        <ele>1445.96</ele>
        <time>2017-02-04T13:00:24Z</time>
      </trkpt>
      <trkpt lat="42.5086" lon="2.39144">
        <ele>1450.29</ele>
        <time>2017-02-04T13:02:23Z</time>
      </trkpt>
      <trkpt lat="42.50865" lon="2.39177">
        <ele>1453.65</ele>
        <time>2017-02-04T13:02:53Z</time>
      </trkpt>
      <trkpt lat="42.50877" lon="2.39213">
        <ele>1457.98</ele>
        <time>2017-02-04T13:03:29Z</time>
      </trkpt>
      <trkpt lat="42.50889" lon="2.39248">
        <ele>1462.3</ele>
        <time>2017-02-04T13:04:09Z</time>
      </trkpt>
      <trkpt lat="42.50898" lon="2.39265">
        <ele>1464.23</ele>
        <time>2017-02-04T13:04:27Z</time>
      </trkpt>
      <trkpt lat="42.5092" lon="2.39298">
        <ele>1468.55</ele>
        <time>2017-02-04T13:05:03Z</time>
      </trkpt>
      <trkpt lat="42.50927" lon="2.39336">
        <ele>1473.36</ele>
        <time>2017-02-04T13:05:40Z</time>
      </trkpt>
      <trkpt lat="42.50905" lon="2.39372">
        <ele>1476.72</ele>
        <time>2017-02-04T13:06:19Z</time>
      </trkpt>
      <trkpt lat="42.50877" lon="2.39405">
        <ele>1480.57</ele>
        <time>2017-02-04T13:07:05Z</time>
      </trkpt>
      <trkpt lat="42.50867" lon="2.39426">
        <ele>1482.01</ele>
        <time>2017-02-04T13:07:25Z</time>
      </trkpt>
      <trkpt lat="42.50852" lon="2.39453">
        <ele>1485.37</ele>
        <time>2017-02-04T13:07:52Z</time>
      </trkpt>
      <trkpt lat="42.50823" lon="2.39481">
        <ele>1488.74</ele>
        <time>2017-02-04T13:08:32Z</time>
      </trkpt>
      <trkpt lat="42.50749" lon="2.39487">
        <ele>1492.1</ele>
        <time>2017-02-04T13:09:53Z</time>
      </trkpt>
      <trkpt lat="42.50706" lon="2.39487">
        <ele>1491.62</ele>
        <time>2017-02-04T13:13:38Z</time>
      </trkpt>
      <trkpt lat="42.50662" lon="2.3948">
        <ele>1493.55</ele>
        <time>2017-02-04T13:14:35Z</time>
      </trkpt>
      <trkpt lat="42.5059" lon="2.39483">
        <ele>1497.39</ele>
        <time>2017-02-04T13:16:01Z</time>
      </trkpt>
      <trkpt lat="42.50548" lon="2.39474">
        <ele>1501.24</ele>
        <time>2017-02-04T13:16:53Z</time>
      </trkpt>
      <trkpt lat="42.50503" lon="2.3946">
        <ele>1504.6</ele>
        <time>2017-02-04T13:17:49Z</time>
      </trkpt>
      <trkpt lat="42.50502" lon="2.39531">
        <ele>1508.45</ele>
        <time>2017-02-04T13:18:51Z</time>
      </trkpt>
      <trkpt lat="42.50502" lon="2.39574">
        <ele>1512.77</ele>
        <time>2017-02-04T13:19:31Z</time>
      </trkpt>
      <trkpt lat="42.50493" lon="2.39605">
        <ele>1517.58</ele>
        <time>2017-02-04T13:20:08Z</time>
      </trkpt>
      <trkpt lat="42.50457" lon="2.39602">
        <ele>1521.9</ele>
        <time>2017-02-04T13:20:49Z</time>
      </trkpt>
      <trkpt lat="42.50431" lon="2.39616">
        <ele>1526.71</ele>
        <time>2017-02-04T13:21:34Z</time>
      </trkpt>
      <trkpt lat="42.50404" lon="2.39638">
        <ele>1530.56</ele>
        <time>2017-02-04T13:22:12Z</time>
      </trkpt>
      <trkpt lat="42.50375" lon="2.3965">
        <ele>1534.4</ele>
        <time>2017-02-04T13:22:51Z</time>
      </trkpt>
      <trkpt lat="42.50347" lon="2.39673">
        <ele>1538.73</ele>
        <time>2017-02-04T13:23:32Z</time>
      </trkpt>
      <trkpt lat="42.50317" lon="2.3969">
        <ele>1542.57</ele>
        <time>2017-02-04T13:24:17Z</time>
      </trkpt>
      <trkpt lat="42.50282" lon="2.39713">
        <ele>1547.86</ele>
        <time>2017-02-04T13:25:04Z</time>
      </trkpt>
      <trkpt lat="42.5025" lon="2.39742">
        <ele>1549.3</ele>
        <time>2017-02-04T13:25:40Z</time>
      </trkpt>
      <trkpt lat="42.50233" lon="2.39767">
        <ele>1552.67</ele>
        <time>2017-02-04T13:26:16Z</time>
      </trkpt>
      <trkpt lat="42.50244" lon="2.39783">
        <ele>1555.55</ele>
        <time>2017-02-04T13:26:38Z</time>
      </trkpt>
      <trkpt lat="42.50245" lon="2.39784">
        <ele>1555.55</ele>
        <time>2017-02-04T13:26:40Z</time>
      </trkpt>
      <trkpt lat="42.50272" lon="2.39825">
        <ele>1560.36</ele>
        <time>2017-02-04T13:27:53Z</time>
      </trkpt>
      <trkpt lat="42.50295" lon="2.39851">
        <ele>1564.68</ele>
        <time>2017-02-04T13:28:33Z</time>
      </trkpt>
      <trkpt lat="42.50316" lon="2.39882">
        <ele>1569.01</ele>
        <time>2017-02-04T13:29:17Z</time>
      </trkpt>
      <trkpt lat="42.50322" lon="2.39916">
        <ele>1572.85</ele>
        <time>2017-02-04T13:29:58Z</time>
      </trkpt>
      <trkpt lat="42.50327" lon="2.39972">
        <ele>1577.66</ele>
        <time>2017-02-04T13:30:51Z</time>
      </trkpt>
      <trkpt lat="42.50316" lon="2.40011">
        <ele>1581.03</ele>
        <time>2017-02-04T13:31:27Z</time>
      </trkpt>
      <trkpt lat="42.50297" lon="2.40035">
        <ele>1584.87</ele>
        <time>2017-02-04T13:32:04Z</time>
      </trkpt>
      <trkpt lat="42.50274" lon="2.4006">
        <ele>1589.2</ele>
        <time>2017-02-04T13:32:45Z</time>
      </trkpt>
      <trkpt lat="42.50251" lon="2.40111">
        <ele>1594</ele>
        <time>2017-02-04T13:33:40Z</time>
      </trkpt>
      <trkpt lat="42.50231" lon="2.40125">
        <ele>1598.33</ele>
        <time>2017-02-04T13:34:20Z</time>
      </trkpt>
      <trkpt lat="42.50187" lon="2.40152">
        <ele>1603.14</ele>
        <time>2017-02-04T13:35:22Z</time>
      </trkpt>
      <trkpt lat="42.50165" lon="2.40182">
        <ele>1607.94</ele>
        <time>2017-02-04T13:36:01Z</time>
      </trkpt>
      <trkpt lat="42.50149" lon="2.40208">
        <ele>1612.27</ele>
        <time>2017-02-04T13:36:39Z</time>
      </trkpt>
      <trkpt lat="42.50126" lon="2.40226">
        <ele>1615.63</ele>
        <time>2017-02-04T13:37:20Z</time>
      </trkpt>
      <trkpt lat="42.50096" lon="2.40245">
        <ele>1619</ele>
        <time>2017-02-04T13:38:02Z</time>
      </trkpt>
      <trkpt lat="42.50067" lon="2.40265">
        <ele>1623.32</ele>
        <time>2017-02-04T13:38:43Z</time>
      </trkpt>
      <trkpt lat="42.50039" lon="2.40282">
        <ele>1627.17</ele>
        <time>2017-02-04T13:39:24Z</time>
      </trkpt>
      <trkpt lat="42.50012" lon="2.40301">
        <ele>1631.98</ele>
        <time>2017-02-04T13:40:05Z</time>
      </trkpt>
      <trkpt lat="42.49983" lon="2.40298">
        <ele>1636.3</ele>
        <time>2017-02-04T13:40:46Z</time>
      </trkpt>
      <trkpt lat="42.49976" lon="2.40332">
        <ele>1641.59</ele>
        <time>2017-02-04T13:41:24Z</time>
      </trkpt>
      <trkpt lat="42.49952" lon="2.40354">
        <ele>1644.95</ele>
        <time>2017-02-04T13:42:01Z</time>
      </trkpt>
      <trkpt lat="42.49921" lon="2.40369">
        <ele>1649.28</ele>
        <time>2017-02-04T13:42:45Z</time>
      </trkpt>
      <trkpt lat="42.49903" lon="2.40393">
        <ele>1653.6</ele>
        <time>2017-02-04T13:43:19Z</time>
      </trkpt>
      <trkpt lat="42.49885" lon="2.40401">
        <ele>1656.01</ele>
        <time>2017-02-04T13:43:43Z</time>
      </trkpt>
      <trkpt lat="42.49881" lon="2.40421">
        <ele>1659.37</ele>
        <time>2017-02-04T13:44:10Z</time>
      </trkpt>
      <trkpt lat="42.49891" lon="2.40441">
        <ele>1661.78</ele>
        <time>2017-02-04T13:44:41Z</time>
      </trkpt>
      <trkpt lat="42.49926" lon="2.40454">
        <ele>1665.14</ele>
        <time>2017-02-04T13:45:20Z</time>
      </trkpt>
      <trkpt lat="42.4995" lon="2.40477">
        <ele>1668.51</ele>
        <time>2017-02-04T13:46:01Z</time>
      </trkpt>
      <trkpt lat="42.49977" lon="2.40494">
        <ele>1672.35</ele>
        <time>2017-02-04T13:46:42Z</time>
      </trkpt>
      <trkpt lat="42.50001" lon="2.40517">
        <ele>1676.68</ele>
        <time>2017-02-04T13:47:24Z</time>
      </trkpt>
      <trkpt lat="42.50014" lon="2.4054">
        <ele>1680.52</ele>
        <time>2017-02-04T13:48:00Z</time>
      </trkpt>
      <trkpt lat="42.50021" lon="2.40579">
        <ele>1683.89</ele>
        <time>2017-02-04T13:48:37Z</time>
      </trkpt>
      <trkpt lat="42.50019" lon="2.4063">
        <ele>1687.25</ele>
        <time>2017-02-04T13:49:21Z</time>
      </trkpt>
      <trkpt lat="42.50018" lon="2.40667">
        <ele>1692.06</ele>
        <time>2017-02-04T13:49:58Z</time>
      </trkpt>
      <trkpt lat="42.50018" lon="2.40699">
        <ele>1695.42</ele>
        <time>2017-02-04T13:50:34Z</time>
      </trkpt>
      <trkpt lat="42.50025" lon="2.40756">
        <ele>1699.75</ele>
        <time>2017-02-04T13:51:31Z</time>
      </trkpt>
      <trkpt lat="42.50025" lon="2.4079">
        <ele>1703.59</ele>
        <time>2017-02-04T13:52:03Z</time>
      </trkpt>
      <trkpt lat="42.50027" lon="2.40826">
        <ele>1707.44</ele>
        <time>2017-02-04T13:52:35Z</time>
      </trkpt>
      <trkpt lat="42.50024" lon="2.40855">
        <ele>1711.28</ele>
        <time>2017-02-04T13:52:58Z</time>
      </trkpt>
      <trkpt lat="42.50019" lon="2.40884">
        <ele>1713.21</ele>
        <time>2017-02-04T13:55:52Z</time>
      </trkpt>
      <trkpt lat="42.50015" lon="2.40905">
        <ele>1709.84</ele>
        <time>2017-02-04T13:56:14Z</time>
      </trkpt>
      <trkpt lat="42.50015" lon="2.40922">
        <ele>1706.48</ele>
        <time>2017-02-04T13:56:34Z</time>
      </trkpt>
      <trkpt lat="42.50021" lon="2.40945">
        <ele>1705.04</ele>
        <time>2017-02-04T13:56:50Z</time>
      </trkpt>
    </trkseg>
  </trk>
</gpx>